Thomson Spirit — 9HA2336 — position and weather

sailwx.info

Track history (hours):
 
Tides and Currents Weather Stations Pressure Air Temp Water Temp Dewpoint Dewpoint Depression Visibility Wind Speed Wind Dir Waves Ship Positions

Thomson Spirit

Last reported at 2017-May-29 20:29 UTC. Time now 2017-May-29 20:43 UTC.
Position N 39°44' E 017°59'.

Length 214 m; draft 8 m.

Type: Passenger vessel. MMSI: 248368000.

Date/timePositionNaut miles runAvg speedWind from/ knotsBaromVisibWave heightAir tempDewpointWater temp
2017-May-29 20:29N 39°44' E 017°59'814.9
2017-May-29 19:58N 39°50' E 017°52'714.4
2017-May-29 19:31N 39°55' E 017°46'814.9
2017-May-29 19:00N 39°60' E 017°39'815.3
2017-May-29 18:30N 40°05' E 017°32'815.0
2017-May-29 18:00N 40°10' E 017°25'713.9
2017-May-29 17:27N 40°16' E 017°18'714.4
2017-May-29 16:59N 40°21' E 017°12'510.3
2017-May-29 16:30N 40°25' E 017°10'4 7.4
2017-May-29 15:57N 40°29' E 017°13'0 0.0
2017-May-29 15:30N 40°29' E 017°13'0 0.0
2017-May-29 15:00N 40°29' E 017°13'0 0.0
2017-May-29 14:30N 40°29' E 017°13'0 0.0
2017-May-29 13:27N 40°29' E 017°13'0 0.0
2017-May-29 13:00N 40°29' E 017°13'0 0.0
2017-May-29 12:30N 40°29' E 017°13'0 0.0
2017-May-29 12:00N 40°29' E 017°13'0 0.0
2017-May-29 11:30N 40°29' E 017°13'0 0.0
2017-May-29 10:54N 40°29' E 017°13'0 0.0
2017-May-29 10:30N 40°29' E 017°13'0 0.0
2017-May-29 09:39N 40°29' E 017°13'0 0.0
2017-May-29 09:30N 40°29' E 017°13'0 0.0
2017-May-29 09:00N 40°29' E 017°13'0 0.0
2017-May-29 08:30N 40°29' E 017°13'0 0.0
2017-May-29 07:57N 40°29' E 017°13'0 0.5
2017-May-29 07:28N 40°28' E 017°13'510.5
2017-May-29 07:00N 40°25' E 017°09'611.7
2017-May-29 06:30N 40°19' E 017°09'713.3
2017-May-29 06:00N 40°12' E 017°11'712.7
2017-May-29 05:27N 40°06' E 017°14'612.5
2017-May-29 04:57N 39°60' E 017°16'612.4
2017-May-29 04:26N 39°53' E 017°18'712.5
2017-May-29 03:54N 39°47' E 017°20'13612.0
2017-May-28 16:37N 37°54' E 015°42'212.5
2017-May-28 16:25N 37°56' E 015°40'511.5
2017-May-28 16:00N 37°59' E 015°36'612.8
2017-May-28 15:30N 38°06' E 015°35'713.2
2017-May-28 15:00N 38°12' E 015°34'1 0.8
2017-May-28 13:59N 38°12' E 015°33'0 0.0
2017-May-28 13:29N 38°12' E 015°33'0 0.0
2017-May-28 12:59N 38°12' E 015°33'0 0.0
2017-May-28 12:29N 38°12' E 015°33'0 0.0
2017-May-28 11:59N 38°12' E 015°33'0 0.0
2017-May-28 11:29N 38°12' E 015°33'0 0.0
2017-May-28 10:56N 38°12' E 015°33'0 0.0
2017-May-28 10:29N 38°12' E 015°33'0 0.0
2017-May-28 09:59N 38°12' E 015°33'0 0.0
2017-May-28 09:29N 38°12' E 015°33'0 0.0
2017-May-28 08:59N 38°12' E 015°33'0 0.0
2017-May-28 08:29N 38°12' E 015°33'0 0.0
2017-May-28 07:59N 38°12' E 015°33'0 0.0
2017-May-28 07:29N 38°12' E 015°33'0 0.0
2017-May-28 06:59N 38°12' E 015°33'0 0.0
2017-May-28 06:29N 38°12' E 015°33'0 0.0
2017-May-28 05:59N 38°12' E 015°33'0 0.0
2017-May-28 05:30N 38°12' E 015°33'1 2.7
2017-May-28 05:00N 38°12' E 015°35'510.0
2017-May-28 04:30N 38°08' E 015°36'612.4
2017-May-28 04:00N 38°01' E 015°36'611.2
2017-May-28 03:30N 37°56' E 015°36'510.1
2017-May-28 03:00N 37°51' E 015°36'5 9.8
2017-May-28 02:30N 37°46' E 015°37'510.2
2017-May-28 02:00N 37°41' E 015°37'510.3
2017-May-28 01:30N 37°36' E 015°37'611.2
2017-May-28 01:00N 37°30' E 015°38'10412.5
2017-May-27 16:42N 35°59' E 014°37'212.6
2017-May-27 16:30N 35°57' E 014°35'4 0.3
2017-May-27 05:15N 35°54' E 014°31'2 7.2
2017-May-27 05:00N 35°55' E 014°33'713.7
2017-May-27 04:30N 36°00' E 014°39'  
2017-May-23 00:19N 44°21' E 014°26'10 7.1
2017-May-22 22:57N 44°16' E 014°14'3 7.1
2017-May-22 22:31N 44°14' E 014°11'29 7.3
2017-May-22 18:35N 44°37' E 013°47'1 7.5
2017-May-22 18:24N 44°39' E 013°46'3 7.6
2017-May-22 18:00N 44°42' E 013°45'4 7.5
2017-May-22 17:31N 44°45' E 013°45'4 7.4
2017-May-22 17:01N 44°49' E 013°45'4 7.1
2017-May-22 16:30N 44°52' E 013°46'3 4.8
2017-May-22 15:59N 44°52' E 013°49'0 0.1
2017-May-22 15:29N 44°52' E 013°49'0 0.0
2017-May-22 14:59N 44°52' E 013°49'0 0.0
2017-May-22 13:59N 44°52' E 013°49'0 0.0
2017-May-22 13:29N 44°52' E 013°49'0 0.0
2017-May-22 12:59N 44°52' E 013°49'0 0.0
2017-May-22 12:29N 44°52' E 013°49'0 0.0
2017-May-22 11:59N 44°52' E 013°49'0 0.0
2017-May-22 11:29N 44°52' E 013°49'0 0.0
2017-May-22 10:59N 44°52' E 013°49'2 0.3
2017-May-22 05:27N 44°53' E 013°47'2 3.5
2017-May-22 04:59N 44°53' E 013°45'3 5.4
2017-May-22 04:30N 44°53' E 013°42'3 5.6
2017-May-22 04:00N 44°54' E 013°38'3 5.6
2017-May-22 03:30N 44°55' E 013°34'3 5.8
2017-May-22 03:00N 44°56' E 013°31'612.1
2017-May-22 02:30N 45°00' E 013°24'3 5.3
2017-May-22 02:00N 45°01' E 013°21'3 5.4
2017-May-22 01:30N 45°03' E 013°17'3 5.4
2017-May-22 01:00N 45°04' E 013°14'3 5.3
2017-May-22 00:30N 45°05' E 013°11'3 5.7
2017-May-22 00:00N 45°07' E 013°07'3 5.9
2017-May-21 23:30N 45°08' E 013°04'3 5.8
2017-May-21 23:00N 45°11' E 013°03'3 6.1
2017-May-21 22:30N 45°14' E 013°02'3 6.1
2017-May-21 22:00N 45°17' E 013°01'3 5.7
2017-May-21 21:30N 45°19' E 012°59'3 5.9
2017-May-21 21:00N 45°20' E 012°55'3 6.2
2017-May-21 20:30N 45°20' E 012°50'3 6.2
2017-May-21 20:00N 45°21' E 012°46'3 6.3
2017-May-21 19:30N 45°21' E 012°42'3 6.2
2017-May-21 19:00N 45°22' E 012°37'3 6.5
2017-May-21 18:30N 45°23' E 012°33'3 7.0
2017-May-21 18:00N 45°24' E 012°28'3 6.9
2017-May-21 17:30N 45°26' E 012°24'3 5.3
2017-May-21 17:00N 45°26' E 012°20'1 2.8
2017-May-21 16:29N 45°26' E 012°18'0 0.0
2017-May-21 16:00N 45°26' E 012°18'0 0.0
2017-May-21 15:30N 45°26' E 012°18'0 0.0
2017-May-21 15:00N 45°26' E 012°18'0 0.0
2017-May-21 14:30N 45°26' E 012°18'0 0.0
2017-May-21 13:30N 45°26' E 012°18'0 0.0
2017-May-21 13:00N 45°26' E 012°18'0 0.0
2017-May-21 12:30N 45°26' E 012°18'0 0.0
2017-May-21 12:00N 45°26' E 012°18'0 0.0
2017-May-21 11:30N 45°26' E 012°18'0 0.0
2017-May-21 11:00N 45°26' E 012°18'0 0.0
2017-May-21 10:30N 45°26' E 012°18'0 0.0
2017-May-21 10:00N 45°26' E 012°18'0 0.0
2017-May-21 09:30N 45°26' E 012°18'0 0.0
2017-May-21 09:00N 45°26' E 012°18'0 0.0
2017-May-21 08:30N 45°26' E 012°18'0 0.0
2017-May-21 08:00N 45°26' E 012°18'0 0.0
2017-May-21 07:30N 45°26' E 012°18'0 0.0
2017-May-21 07:00N 45°26' E 012°18'0 0.0
2017-May-21 06:30N 45°26' E 012°18'0 0.0
2017-May-21 06:00N 45°26' E 012°18'0 0.0
2017-May-21 05:30N 45°26' E 012°18'1 1.6
2017-May-21 05:00N 45°26' E 012°19'3 5.2
2017-May-21 04:30N 45°26' E 012°23'4 8.5
2017-May-21 04:00N 45°24' E 012°29'5 9.2
2017-May-21 03:30N 45°22' E 012°34'4 8.9
2017-May-21 03:00N 45°23' E 012°40'4 9.0
2017-May-21 02:30N 45°24' E 012°46'4 8.8
2017-May-21 02:00N 45°25' E 012°52'4 7.1
2017-May-21 01:30N 45°26' E 012°57'3 7.0
2017-May-21 01:00N 45°28' E 013°01'4 7.0
2017-May-21 00:30N 45°30' E 013°06'4 7.2
2017-May-21 00:00N 45°31' E 013°10'4 7.5
2017-May-20 23:30N 45°33' E 013°15'4 7.4
2017-May-20 23:00N 45°34' E 013°20'4 7.3
2017-May-20 22:30N 45°36' E 013°25'4 7.2
2017-May-20 22:00N 45°37' E 013°30'4 7.0
2017-May-20 21:30N 45°38' E 013°34'4 7.5
2017-May-20 21:00N 45°36' E 013°39'4 7.3
2017-May-20 20:30N 45°33' E 013°42'1 2.0
2017-May-20 19:55N 45°33' E 013°44'0 0.0
2017-May-20 19:28N 45°33' E 013°44'0 0.0
2017-May-20 18:58N 45°33' E 013°44'0 0.0
2017-May-20 18:25N 45°33' E 013°44'0 0.0
2017-May-20 17:55N 45°33' E 013°44'0 0.0
2017-May-20 17:19N 45°33' E 013°44'0 0.0
2017-May-20 16:58N 45°33' E 013°44'0 0.0
2017-May-20 16:28N 45°33' E 013°44'0 0.0
2017-May-20 15:58N 45°33' E 013°44'0 0.0
2017-May-20 15:28N 45°33' E 013°44'0 0.0
2017-May-20 14:58N 45°33' E 013°44'0 0.0
2017-May-20 13:55N 45°33' E 013°44'0 0.0
2017-May-20 13:28N 45°33' E 013°44'0 0.0
2017-May-20 12:58N 45°33' E 013°44'0 0.0
2017-May-20 12:28N 45°33' E 013°44'0 0.0
2017-May-20 11:55N 45°33' E 013°44'0 0.0
2017-May-20 11:28N 45°33' E 013°44'0 0.0
2017-May-20 10:55N 45°33' E 013°44'0 0.0
2017-May-20 10:25N 45°33' E 013°44'0 0.0
2017-May-20 09:58N 45°33' E 013°44'0 0.0
2017-May-20 09:25N 45°33' E 013°44'0 0.0
2017-May-20 08:58N 45°33' E 013°44'0 0.0
2017-May-20 08:25N 45°33' E 013°44'0 0.0
2017-May-20 07:58N 45°33' E 013°44'0 0.0
2017-May-20 07:28N 45°33' E 013°44'0 0.0
2017-May-20 06:58N 45°33' E 013°44'0 0.0
2017-May-20 06:28N 45°33' E 013°44'0 0.0
2017-May-20 05:58N 45°33' E 013°44'0 0.0
2017-May-20 05:30N 45°33' E 013°44'2 3.3
2017-May-20 05:01N 45°34' E 013°42'5 9.1
2017-May-20 04:30N 45°34' E 013°35'5 9.6
2017-May-20 04:01N 45°33' E 013°29'5 9.7
2017-May-20 03:31N 45°30' E 013°23'5 9.5
2017-May-20 03:00N 45°27' E 013°18'5 9.7
2017-May-20 02:30N 45°24' E 013°12'713.2
2017-May-20 02:00N 45°18' E 013°14'714.4
2017-May-20 01:31N 45°11' E 013°16'715.0
2017-May-20 01:01N 45°04' E 013°20'815.1
2017-May-20 00:31N 44°57' E 013°23'715.0
2017-May-20 00:01N 44°50' E 013°29'714.5
2017-May-19 23:30N 44°44' E 013°35'714.4
2017-May-19 23:00N 44°38' E 013°40'714.7
2017-May-19 22:31N 44°32' E 013°46'714.7
2017-May-19 22:01N 44°26' E 013°51'714.7
2017-May-19 21:30N 44°20' E 013°57'714.7
2017-May-19 21:00N 44°13' E 014°02'714.5
2017-May-19 20:31N 44°08' E 014°08'  
Track history (hours):
 
Tides and Currents Weather Stations Pressure Air Temp Water Temp Dewpoint Dewpoint Depression Visibility Wind Speed Wind Dir Waves Ship Positions

Thomson Spirit

Last reported at 2017-May-29 20:29 UTC. Time now 2017-May-29 20:43 UTC.
Position N 39°44' E 017°59'.

Length 214 m; draft 8 m.

Type: Passenger vessel. MMSI: 248368000.

Date/timePositionNaut miles runAvg speedWind from/ knotsBaromVisibWave heightAir tempDewpointWater temp
2017-May-29 20:29N 39°44' E 017°59'814.9
2017-May-29 19:58N 39°50' E 017°52'714.4
2017-May-29 19:31N 39°55' E 017°46'814.9
2017-May-29 19:00N 39°60' E 017°39'815.3
2017-May-29 18:30N 40°05' E 017°32'815.0
2017-May-29 18:00N 40°10' E 017°25'713.9
2017-May-29 17:27N 40°16' E 017°18'714.4
2017-May-29 16:59N 40°21' E 017°12'510.3
2017-May-29 16:30N 40°25' E 017°10'4 7.4
2017-May-29 15:57N 40°29' E 017°13'0 0.0
2017-May-29 15:30N 40°29' E 017°13'0 0.0
2017-May-29 15:00N 40°29' E 017°13'0 0.0
2017-May-29 14:30N 40°29' E 017°13'0 0.0
2017-May-29 13:27N 40°29' E 017°13'0 0.0
2017-May-29 13:00N 40°29' E 017°13'0 0.0
2017-May-29 12:30N 40°29' E 017°13'0 0.0
2017-May-29 12:00N 40°29' E 017°13'0 0.0
2017-May-29 11:30N 40°29' E 017°13'0 0.0
2017-May-29 10:54N 40°29' E 017°13'0 0.0
2017-May-29 10:30N 40°29' E 017°13'0 0.0
2017-May-29 09:39N 40°29' E 017°13'0 0.0
2017-May-29 09:30N 40°29' E 017°13'0 0.0
2017-May-29 09:00N 40°29' E 017°13'0 0.0
2017-May-29 08:30N 40°29' E 017°13'0 0.0
2017-May-29 07:57N 40°29' E 017°13'0 0.5
2017-May-29 07:28N 40°28' E 017°13'510.5
2017-May-29 07:00N 40°25' E 017°09'611.7
2017-May-29 06:30N 40°19' E 017°09'713.3
2017-May-29 06:00N 40°12' E 017°11'712.7
2017-May-29 05:27N 40°06' E 017°14'612.5
2017-May-29 04:57N 39°60' E 017°16'612.4
2017-May-29 04:26N 39°53' E 017°18'712.5
2017-May-29 03:54N 39°47' E 017°20'13612.0
2017-May-28 16:37N 37°54' E 015°42'212.5
2017-May-28 16:25N 37°56' E 015°40'511.5
2017-May-28 16:00N 37°59' E 015°36'612.8
2017-May-28 15:30N 38°06' E 015°35'713.2
2017-May-28 15:00N 38°12' E 015°34'1 0.8
2017-May-28 13:59N 38°12' E 015°33'0 0.0
2017-May-28 13:29N 38°12' E 015°33'0 0.0
2017-May-28 12:59N 38°12' E 015°33'0 0.0
2017-May-28 12:29N 38°12' E 015°33'0 0.0
2017-May-28 11:59N 38°12' E 015°33'0 0.0
2017-May-28 11:29N 38°12' E 015°33'0 0.0
2017-May-28 10:56N 38°12' E 015°33'0 0.0
2017-May-28 10:29N 38°12' E 015°33'0 0.0
2017-May-28 09:59N 38°12' E 015°33'0 0.0
2017-May-28 09:29N 38°12' E 015°33'0 0.0
2017-May-28 08:59N 38°12' E 015°33'0 0.0
2017-May-28 08:29N 38°12' E 015°33'0 0.0
2017-May-28 07:59N 38°12' E 015°33'0 0.0
2017-May-28 07:29N 38°12' E 015°33'0 0.0
2017-May-28 06:59N 38°12' E 015°33'0 0.0
2017-May-28 06:29N 38°12' E 015°33'0 0.0
2017-May-28 05:59N 38°12' E 015°33'0 0.0
2017-May-28 05:30N 38°12' E 015°33'1 2.7
2017-May-28 05:00N 38°12' E 015°35'510.0
2017-May-28 04:30N 38°08' E 015°36'612.4
2017-May-28 04:00N 38°01' E 015°36'611.2
2017-May-28 03:30N 37°56' E 015°36'510.1
2017-May-28 03:00N 37°51' E 015°36'5 9.8
2017-May-28 02:30N 37°46' E 015°37'510.2
2017-May-28 02:00N 37°41' E 015°37'510.3
2017-May-28 01:30N 37°36' E 015°37'611.2
2017-May-28 01:00N 37°30' E 015°38'10412.5
2017-May-27 16:42N 35°59' E 014°37'212.6
2017-May-27 16:30N 35°57' E 014°35'4 0.3
2017-May-27 05:15N 35°54' E 014°31'2 7.2
2017-May-27 05:00N 35°55' E 014°33'713.7
2017-May-27 04:30N 36°00' E 014°39'  
2017-May-23 00:19N 44°21' E 014°26'10 7.1
2017-May-22 22:57N 44°16' E 014°14'3 7.1
2017-May-22 22:31N 44°14' E 014°11'29 7.3
2017-May-22 18:35N 44°37' E 013°47'1 7.5
2017-May-22 18:24N 44°39' E 013°46'3 7.6
2017-May-22 18:00N 44°42' E 013°45'4 7.5
2017-May-22 17:31N 44°45' E 013°45'4 7.4
2017-May-22 17:01N 44°49' E 013°45'4 7.1
2017-May-22 16:30N 44°52' E 013°46'3 4.8
2017-May-22 15:59N 44°52' E 013°49'0 0.1
2017-May-22 15:29N 44°52' E 013°49'0 0.0
2017-May-22 14:59N 44°52' E 013°49'0 0.0
2017-May-22 13:59N 44°52' E 013°49'0 0.0
2017-May-22 13:29N 44°52' E 013°49'0 0.0
2017-May-22 12:59N 44°52' E 013°49'0 0.0
2017-May-22 12:29N 44°52' E 013°49'0 0.0
2017-May-22 11:59N 44°52' E 013°49'0 0.0
2017-May-22 11:29N 44°52' E 013°49'0 0.0
2017-May-22 10:59N 44°52' E 013°49'2 0.3
2017-May-22 05:27N 44°53' E 013°47'2 3.5
2017-May-22 04:59N 44°53' E 013°45'3 5.4
2017-May-22 04:30N 44°53' E 013°42'3 5.6
2017-May-22 04:00N 44°54' E 013°38'3 5.6
2017-May-22 03:30N 44°55' E 013°34'3 5.8
2017-May-22 03:00N 44°56' E 013°31'612.1
2017-May-22 02:30N 45°00' E 013°24'3 5.3
2017-May-22 02:00N 45°01' E 013°21'3 5.4
2017-May-22 01:30N 45°03' E 013°17'3 5.4
2017-May-22 01:00N 45°04' E 013°14'3 5.3
2017-May-22 00:30N 45°05' E 013°11'3 5.7
2017-May-22 00:00N 45°07' E 013°07'3 5.9
2017-May-21 23:30N 45°08' E 013°04'3 5.8
2017-May-21 23:00N 45°11' E 013°03'3 6.1
2017-May-21 22:30N 45°14' E 013°02'3 6.1
2017-May-21 22:00N 45°17' E 013°01'3 5.7
2017-May-21 21:30N 45°19' E 012°59'3 5.9
2017-May-21 21:00N 45°20' E 012°55'3 6.2
2017-May-21 20:30N 45°20' E 012°50'3 6.2
2017-May-21 20:00N 45°21' E 012°46'3 6.3
2017-May-21 19:30N 45°21' E 012°42'3 6.2
2017-May-21 19:00N 45°22' E 012°37'3 6.5
2017-May-21 18:30N 45°23' E 012°33'3 7.0
2017-May-21 18:00N 45°24' E 012°28'3 6.9
2017-May-21 17:30N 45°26' E 012°24'3 5.3
2017-May-21 17:00N 45°26' E 012°20'1 2.8
2017-May-21 16:29N 45°26' E 012°18'0 0.0
2017-May-21 16:00N 45°26' E 012°18'0 0.0
2017-May-21 15:30N 45°26' E 012°18'0 0.0
2017-May-21 15:00N 45°26' E 012°18'0 0.0
2017-May-21 14:30N 45°26' E 012°18'0 0.0
2017-May-21 13:30N 45°26' E 012°18'0 0.0
2017-May-21 13:00N 45°26' E 012°18'0 0.0
2017-May-21 12:30N 45°26' E 012°18'0 0.0
2017-May-21 12:00N 45°26' E 012°18'0 0.0
2017-May-21 11:30N 45°26' E 012°18'0 0.0
2017-May-21 11:00N 45°26' E 012°18'0 0.0
2017-May-21 10:30N 45°26' E 012°18'0 0.0
2017-May-21 10:00N 45°26' E 012°18'0 0.0
2017-May-21 09:30N 45°26' E 012°18'0 0.0
2017-May-21 09:00N 45°26' E 012°18'0 0.0
2017-May-21 08:30N 45°26' E 012°18'0 0.0
2017-May-21 08:00N 45°26' E 012°18'0 0.0
2017-May-21 07:30N 45°26' E 012°18'0 0.0
2017-May-21 07:00N 45°26' E 012°18'0 0.0
2017-May-21 06:30N 45°26' E 012°18'0 0.0
2017-May-21 06:00N 45°26' E 012°18'0 0.0
2017-May-21 05:30N 45°26' E 012°18'1 1.6
2017-May-21 05:00N 45°26' E 012°19'3 5.2
2017-May-21 04:30N 45°26' E 012°23'4 8.5
2017-May-21 04:00N 45°24' E 012°29'5 9.2
2017-May-21 03:30N 45°22' E 012°34'4 8.9
2017-May-21 03:00N 45°23' E 012°40'4 9.0
2017-May-21 02:30N 45°24' E 012°46'4 8.8
2017-May-21 02:00N 45°25' E 012°52'4 7.1
2017-May-21 01:30N 45°26' E 012°57'3 7.0
2017-May-21 01:00N 45°28' E 013°01'4 7.0
2017-May-21 00:30N 45°30' E 013°06'4 7.2
2017-May-21 00:00N 45°31' E 013°10'4 7.5
2017-May-20 23:30N 45°33' E 013°15'4 7.4
2017-May-20 23:00N 45°34' E 013°20'4 7.3
2017-May-20 22:30N 45°36' E 013°25'4 7.2
2017-May-20 22:00N 45°37' E 013°30'4 7.0
2017-May-20 21:30N 45°38' E 013°34'4 7.5
2017-May-20 21:00N 45°36' E 013°39'4 7.3
2017-May-20 20:30N 45°33' E 013°42'1 2.0
2017-May-20 19:55N 45°33' E 013°44'0 0.0
2017-May-20 19:28N 45°33' E 013°44'0 0.0
2017-May-20 18:58N 45°33' E 013°44'0 0.0
2017-May-20 18:25N 45°33' E 013°44'0 0.0
2017-May-20 17:55N 45°33' E 013°44'0 0.0
2017-May-20 17:19N 45°33' E 013°44'0 0.0
2017-May-20 16:58N 45°33' E 013°44'0 0.0
2017-May-20 16:28N 45°33' E 013°44'0 0.0
2017-May-20 15:58N 45°33' E 013°44'0 0.0
2017-May-20 15:28N 45°33' E 013°44'0 0.0
2017-May-20 14:58N 45°33' E 013°44'0 0.0
2017-May-20 13:55N 45°33' E 013°44'0 0.0
2017-May-20 13:28N 45°33' E 013°44'0 0.0
2017-May-20 12:58N 45°33' E 013°44'0 0.0
2017-May-20 12:28N 45°33' E 013°44'0 0.0
2017-May-20 11:55N 45°33' E 013°44'0 0.0
2017-May-20 11:28N 45°33' E 013°44'0 0.0
2017-May-20 10:55N 45°33' E 013°44'0 0.0
2017-May-20 10:25N 45°33' E 013°44'0 0.0
2017-May-20 09:58N 45°33' E 013°44'0 0.0
2017-May-20 09:25N 45°33' E 013°44'0 0.0
2017-May-20 08:58N 45°33' E 013°44'0 0.0
2017-May-20 08:25N 45°33' E 013°44'0 0.0
2017-May-20 07:58N 45°33' E 013°44'0 0.0
2017-May-20 07:28N 45°33' E 013°44'0 0.0
2017-May-20 06:58N 45°33' E 013°44'0 0.0
2017-May-20 06:28N 45°33' E 013°44'0 0.0
2017-May-20 05:58N 45°33' E 013°44'0 0.0
2017-May-20 05:30N 45°33' E 013°44'2 3.3
2017-May-20 05:01N 45°34' E 013°42'5 9.1
2017-May-20 04:30N 45°34' E 013°35'5 9.6
2017-May-20 04:01N 45°33' E 013°29'5 9.7
2017-May-20 03:31N 45°30' E 013°23'5 9.5
2017-May-20 03:00N 45°27' E 013°18'5 9.7
2017-May-20 02:30N 45°24' E 013°12'713.2
2017-May-20 02:00N 45°18' E 013°14'714.4
2017-May-20 01:31N 45°11' E 013°16'715.0
2017-May-20 01:01N 45°04' E 013°20'815.1
2017-May-20 00:31N 44°57' E 013°23'715.0
2017-May-20 00:01N 44°50' E 013°29'714.5
2017-May-19 23:30N 44°44' E 013°35'714.4
2017-May-19 23:00N 44°38' E 013°40'714.7
2017-May-19 22:31N 44°32' E 013°46'714.7
2017-May-19 22:01N 44°26' E 013°51'714.7
2017-May-19 21:30N 44°20' E 013°57'714.7
2017-May-19 21:00N 44°13' E 014°02'714.5
2017-May-19 20:31N 44°08' E 014°08'  

Dump ship's entire track history